createdAt,value
2022-09-22T00:01:02.034Z,5.88
2022-09-22T00:04:55.479Z,5.73
2022-09-22T00:06:48.235Z,5.65
2022-09-22T00:08:06.211Z,5.63
2022-09-22T00:09:23.614Z,5.60
2022-09-22T00:10:30.753Z,5.57
2022-09-22T00:11:46.981Z,5.56
2022-09-22T00:12:56.361Z,5.54
2022-09-22T00:14:10.648Z,5.52
2022-09-22T00:15:15.479Z,5.48
2022-09-22T00:16:37.022Z,5.44
2022-09-22T00:17:41.565Z,5.42
2022-09-22T00:18:50.410Z,5.41
2022-09-22T00:19:54.514Z,5.38
2022-09-22T00:21:00.202Z,5.35
2022-09-22T00:22:15.290Z,5.34
2022-09-22T00:23:33.197Z,5.32
2022-09-22T00:24:46.137Z,5.28
2022-09-22T00:26:00.322Z,5.23
2022-09-22T00:28:00.586Z,5.16
2022-09-22T00:30:42.751Z,5.05
2022-09-22T00:31:53.254Z,5.00
2022-09-22T00:32:59.691Z,4.97
2022-09-22T00:34:22.897Z,4.95
2022-09-22T00:36:03.788Z,4.93
2022-09-22T00:39:45.651Z,4.87
2022-09-22T00:41:43.226Z,4.83
2022-09-22T00:43:08.377Z,4.78
2022-09-22T00:44:49.946Z,4.72
2022-09-22T00:48:44.841Z,4.51
2022-09-22T00:50:24.217Z,4.46
2022-09-22T00:51:41.077Z,4.40
2022-09-22T00:52:53.013Z,4.38
2022-09-22T00:54:15.054Z,4.35
2022-09-22T00:55:27.228Z,4.34
2022-09-22T01:03:05.155Z,4.25
2022-09-22T01:04:11.196Z,4.21
2022-09-22T01:05:25.149Z,4.17
2022-09-22T01:06:38.221Z,4.15
2022-09-22T01:07:55.341Z,4.12
2022-09-22T01:09:26.868Z,4.08
2022-09-22T01:10:31.468Z,4.05
2022-09-22T01:12:01.282Z,4.03
2022-09-22T01:13:30.724Z,3.99
2022-09-22T01:17:27.428Z,3.83
2022-09-22T01:18:44.587Z,3.82
2022-09-22T01:20:41.224Z,3.84
2022-09-22T01:22:00.629Z,3.81
2022-09-22T01:23:45.219Z,3.78
2022-09-22T01:26:05.020Z,3.69
2022-09-22T01:28:00.470Z,3.64
2022-09-22T01:29:28.890Z,3.58
2022-09-22T01:30:50.632Z,3.56
2022-09-22T01:32:01.245Z,3.53
2022-09-22T01:33:40.917Z,3.50
2022-09-22T01:34:55.621Z,3.47
2022-09-22T01:37:10.588Z,3.44
2022-09-22T02:13:14.119Z,3.16
2022-09-22T02:26:33.762Z,3.82
2022-09-22T02:32:57.785Z,4.38
2022-09-22T02:34:14.773Z,4.50
2022-09-22T02:39:58.593Z,4.60
2022-09-22T02:40:46.588Z,4.88
2022-09-22T02:42:27.087Z,5.02
2022-09-22T02:43:41.184Z,5.10
2022-09-22T02:44:51.279Z,5.20
2022-09-22T02:46:51.933Z,5.33
2022-09-22T02:48:01.483Z,5.43
2022-09-22T02:52:45.789Z,5.68
2022-09-22T02:54:55.308Z,5.76
2022-09-22T02:58:00.690Z,5.85
2022-09-22T02:59:10.002Z,5.88
2022-09-22T03:00:16.610Z,5.90
2022-09-22T03:01:25.347Z,5.92
2022-09-22T03:02:45.760Z,5.96
2022-09-22T03:04:44.197Z,5.97
2022-09-22T03:05:49.672Z,6.01
2022-09-22T03:06:56.785Z,6.06
2022-09-22T03:08:11.527Z,6.10
2022-09-22T03:11:57.763Z,6.18
2022-09-22T03:13:15.951Z,6.23
2022-09-22T03:14:45.698Z,6.30
2022-09-22T03:15:50.162Z,6.36
2022-09-22T03:17:01.803Z,6.40
2022-09-22T03:18:12.716Z,6.45
2022-09-22T03:19:18.116Z,6.50
2022-09-22T03:20:26.365Z,6.55
2022-09-22T03:21:40.866Z,6.60
2022-09-22T03:24:10.494Z,6.68
2022-09-22T03:25:23.536Z,6.71
2022-09-22T03:26:35.380Z,6.75
2022-09-22T03:27:42.299Z,6.79
2022-09-22T03:29:02.944Z,6.85
2022-09-22T03:32:09.013Z,6.93
2022-09-22T03:33:12.962Z,6.98
2022-09-22T03:35:10.637Z,7.02
2022-09-22T03:36:43.547Z,7.08
2022-09-22T03:39:05.644Z,7.15
2022-09-22T03:40:10.776Z,7.19
2022-09-22T03:41:43.633Z,7.26
2022-09-22T03:42:51.525Z,7.31
2022-09-22T03:44:02.247Z,7.35
2022-09-22T03:45:10.518Z,7.39
2022-09-22T03:46:17.891Z,7.45
2022-09-22T03:47:43.490Z,7.49
2022-09-22T03:48:50.824Z,7.52
2022-09-22T03:49:57.036Z,7.54
2022-09-22T03:51:01.132Z,7.57
2022-09-22T03:52:26.449Z,7.60
2022-09-22T03:56:33.984Z,7.67
2022-09-22T03:57:41.358Z,7.69
2022-09-22T03:58:47.114Z,7.68
2022-09-22T03:59:51.486Z,7.69
2022-09-22T04:00:57.115Z,7.70
2022-09-22T04:02:15.152Z,7.72
2022-09-22T04:03:25.416Z,7.71
2022-09-22T04:04:40.156Z,7.73
2022-09-22T04:05:50.341Z,7.74
2022-09-22T04:06:55.661Z,7.74
2022-09-22T04:08:02.486Z,7.75
2022-09-22T04:09:10.840Z,7.77
2022-09-22T04:10:19.296Z,7.78
2022-09-22T04:11:24.188Z,7.80
2022-09-22T04:12:32.231Z,7.80
2022-09-22T04:13:36.316Z,7.81
2022-09-22T04:14:42.121Z,7.80
2022-09-22T04:15:47.138Z,7.82
2022-09-22T04:16:54.633Z,7.84
2022-09-22T04:19:47.450Z,7.87
2022-09-22T04:21:11.341Z,7.87
2022-09-22T04:22:15.531Z,7.88
2022-09-22T04:23:21.027Z,7.90
2022-09-22T04:24:25.209Z,7.91
2022-09-22T04:25:32.730Z,7.93
2022-09-22T04:26:36.479Z,7.94
2022-09-22T04:27:41.572Z,7.96
2022-09-22T04:28:45.430Z,7.97
2022-09-22T04:29:50.170Z,7.97
2022-09-22T04:30:53.943Z,7.97
2022-09-22T04:32:01.723Z,7.99
2022-09-22T04:33:08.218Z,7.98
2022-09-22T04:34:11.862Z,7.97
2022-09-22T04:35:19.111Z,7.99
2022-09-22T04:36:24.081Z,8.00
2022-09-22T04:37:28.236Z,8.01
2022-09-22T04:38:33.176Z,8.03
2022-09-22T04:39:37.067Z,8.03
2022-09-22T04:40:41.743Z,8.05
2022-09-22T04:41:45.432Z,8.07
2022-09-22T04:42:53.152Z,8.07
2022-09-22T04:43:56.681Z,8.08
2022-09-22T04:45:02.371Z,8.09
2022-09-22T04:46:06.539Z,8.10
2022-09-22T04:47:11.106Z,8.12
2022-09-22T04:48:16.041Z,8.12
2022-09-22T04:49:20.841Z,8.13
2022-09-22T04:50:25.399Z,8.14
2022-09-22T04:51:30.546Z,8.14
2022-09-22T04:52:34.291Z,8.16
2022-09-22T04:53:39.292Z,8.17
2022-09-22T04:54:43.072Z,8.18
2022-09-22T04:55:47.360Z,8.21
2022-09-22T04:56:50.752Z,8.23
2022-09-22T04:57:59.896Z,8.25
2022-09-22T04:59:04.646Z,8.27
2022-09-22T05:00:09.595Z,8.29
2022-09-22T05:01:14.316Z,8.30
2022-09-22T05:02:18.032Z,8.32
2022-09-22T05:03:23.929Z,8.35
2022-09-22T05:04:34.827Z,8.37
2022-09-22T05:05:39.780Z,8.37
2022-09-22T05:06:43.642Z,8.39
2022-09-22T05:07:49.775Z,8.43
2022-09-22T05:08:53.421Z,8.44
2022-09-22T05:09:58.413Z,8.46
2022-09-22T05:11:02.334Z,8.49
2022-09-22T05:12:07.156Z,8.51
2022-09-22T05:13:12.138Z,8.52
2022-09-22T05:14:17.517Z,8.54
2022-09-22T05:15:22.176Z,8.54
2022-09-22T05:16:27.064Z,8.53
2022-09-22T05:17:30.495Z,8.54
2022-09-22T05:18:36.693Z,8.54
2022-09-22T05:19:39.867Z,8.53
2022-09-22T05:20:46.180Z,8.54
2022-09-22T05:21:49.505Z,8.54
2022-09-22T05:22:54.968Z,8.56
2022-09-22T05:23:58.470Z,8.57
2022-09-22T05:25:03.004Z,8.59
2022-09-22T05:26:07.125Z,8.61
2022-09-22T05:27:11.804Z,8.65
2022-09-22T05:28:15.501Z,8.68
2022-09-22T05:29:23.481Z,8.71
2022-09-22T05:30:29.351Z,8.74
2022-09-22T05:31:34.320Z,8.77
2022-09-22T05:32:38.111Z,8.81
2022-09-22T05:33:44.107Z,8.83
2022-09-22T05:34:47.663Z,8.85
2022-09-22T05:35:52.536Z,8.86
2022-09-22T05:36:56.288Z,8.89
2022-09-22T05:38:01.297Z,8.90
2022-09-22T05:39:05.302Z,8.90
2022-09-22T05:40:14.156Z,8.89
2022-09-22T05:41:19.089Z,8.90
2022-09-22T05:42:24.298Z,8.92
2022-09-22T05:43:29.647Z,8.95
2022-09-22T05:44:44.517Z,8.97
2022-09-22T05:45:50.144Z,8.98
2022-09-22T05:46:53.809Z,8.99
2022-09-22T05:47:58.831Z,8.99
2022-09-22T05:49:04.130Z,8.98
2022-09-22T05:50:10.096Z,8.98
2022-09-22T05:51:15.010Z,8.99
2022-09-22T05:52:18.618Z,8.99
2022-09-22T05:53:23.252Z,8.99
2022-09-22T05:54:27.259Z,8.97
2022-09-22T05:55:32.213Z,8.96
2022-09-22T05:56:36.087Z,8.97
2022-09-22T05:57:41.238Z,8.99
2022-09-22T05:58:49.196Z,9.02
2022-09-22T05:59:53.179Z,9.04
2022-09-22T06:00:59.151Z,9.06
2022-09-22T06:02:13.324Z,9.08
2022-09-22T06:03:28.487Z,9.08
2022-09-22T06:04:33.407Z,9.08
2022-09-22T06:05:39.475Z,9.10
2022-09-22T06:06:50.586Z,9.14
2022-09-22T06:08:01.125Z,9.14
2022-09-22T06:09:05.243Z,9.16
2022-09-22T06:10:12.097Z,9.16
2022-09-22T06:11:16.412Z,9.19
2022-09-22T06:12:19.872Z,9.22
2022-09-22T06:13:24.543Z,9.23
2022-09-22T06:14:35.206Z,9.26
2022-09-22T06:15:40.504Z,9.27
2022-09-22T06:16:44.116Z,9.27
2022-09-22T06:17:48.388Z,9.28
2022-09-22T06:18:51.510Z,9.28
2022-09-22T06:19:57.356Z,9.30
2022-09-22T06:21:01.810Z,9.31
2022-09-22T06:22:05.453Z,9.32
2022-09-22T06:23:10.153Z,9.34
2022-09-22T06:24:13.438Z,9.34
2022-09-22T06:25:17.946Z,9.36
2022-09-22T06:26:22.306Z,9.37
2022-09-22T06:27:25.589Z,9.39
2022-09-22T06:28:29.803Z,9.39
2022-09-22T06:29:33.167Z,9.40
2022-09-22T06:30:40.295Z,9.42
2022-09-22T06:31:43.637Z,9.43
2022-09-22T06:32:55.645Z,9.45
2022-09-22T06:33:59.059Z,9.46
2022-09-22T06:35:04.902Z,9.48
2022-09-22T06:36:08.518Z,9.49
2022-09-22T06:37:13.757Z,9.51
2022-09-22T06:38:18.135Z,9.54
2022-09-22T06:39:25.518Z,9.60
2022-09-22T06:40:28.741Z,9.67
2022-09-22T06:41:34.311Z,9.71
2022-09-22T06:42:38.666Z,9.76
2022-09-22T06:43:43.595Z,9.79
2022-09-22T06:44:48.371Z,9.85
2022-09-22T06:45:52.427Z,9.92
2022-09-22T06:46:56.580Z,10.00
2022-09-22T06:48:01.045Z,10.05
2022-09-22T06:49:05.279Z,10.09
2022-09-22T06:50:10.318Z,10.12
2022-09-22T06:51:14.683Z,10.12
2022-09-22T06:52:17.753Z,10.15
2022-09-22T06:53:25.707Z,10.15
2022-09-22T06:54:30.735Z,10.16
2022-09-22T06:55:35.643Z,10.20
2022-09-22T06:56:42.904Z,10.20
2022-09-22T06:57:47.398Z,10.24
2022-09-22T06:59:08.886Z,10.26
2022-09-22T07:00:15.516Z,10.29
2022-09-22T07:01:19.584Z,10.31
2022-09-22T07:02:28.580Z,10.32
2022-09-22T07:03:32.585Z,10.33
2022-09-22T07:04:36.823Z,10.35
2022-09-22T07:05:43.352Z,10.36
2022-09-22T07:06:50.655Z,10.39
2022-09-22T07:07:53.838Z,10.43
2022-09-22T07:08:58.339Z,10.43
2022-09-22T07:10:02.486Z,10.45
2022-09-22T07:11:09.295Z,10.46
2022-09-22T07:12:13.712Z,10.49
2022-09-22T07:13:17.951Z,10.54
2022-09-22T07:14:22.711Z,10.58
2022-09-22T07:15:25.971Z,10.63
2022-09-22T07:16:30.267Z,10.68
2022-09-22T07:17:36.220Z,10.69
2022-09-22T07:18:41.938Z,10.69
2022-09-22T07:19:47.327Z,10.70
2022-09-22T07:20:52.944Z,10.69
2022-09-22T07:21:58.772Z,10.69
2022-09-22T07:23:02.019Z,10.68
2022-09-22T07:24:08.688Z,10.70
2022-09-22T07:25:12.508Z,10.75
2022-09-22T07:26:18.790Z,10.79
2022-09-22T07:27:26.168Z,10.78
2022-09-22T07:28:29.965Z,10.78
2022-09-22T07:29:42.987Z,10.77
2022-09-22T07:30:48.245Z,10.78
2022-09-22T07:31:53.622Z,10.81
2022-09-22T07:32:57.666Z,10.80
2022-09-22T07:34:02.744Z,10.83
2022-09-22T07:35:08.110Z,10.83
2022-09-22T07:36:14.601Z,10.86
2022-09-22T07:37:18.858Z,10.91
2022-09-22T07:38:22.267Z,10.98
2022-09-22T07:39:26.760Z,11.09
2022-09-22T07:40:30.382Z,11.26
2022-09-22T07:41:41.951Z,11.36
2022-09-22T07:42:50.229Z,11.50
2022-09-22T07:43:56.518Z,11.60
2022-09-22T07:45:16.079Z,11.73
2022-09-22T07:46:20.427Z,12.09
2022-09-22T07:47:38.489Z,12.50
2022-09-22T07:48:47.486Z,13.08
2022-09-22T07:49:50.793Z,13.36
2022-09-22T07:51:00.448Z,13.50
2022-09-22T07:52:05.504Z,13.53
2022-09-22T07:53:10.163Z,13.50
2022-09-22T07:54:13.881Z,13.49
2022-09-22T07:55:18.342Z,13.46
2022-09-22T07:56:21.582Z,13.38
2022-09-22T07:57:25.838Z,13.26
2022-09-22T07:58:30.514Z,13.15
2022-09-22T07:59:35.270Z,13.00
2022-09-22T08:00:38.444Z,12.84
2022-09-22T08:01:44.547Z,12.72
2022-09-22T08:02:55.527Z,12.67
2022-09-22T08:03:59.675Z,12.62
2022-09-22T08:05:03.564Z,12.57
2022-09-22T08:06:11.706Z,12.57
2022-09-22T08:07:16.339Z,12.56
2022-09-22T08:08:20.954Z,12.59
2022-09-22T08:09:26.225Z,12.62
2022-09-22T08:10:29.955Z,12.65
2022-09-22T08:11:34.678Z,12.66
2022-09-22T08:12:39.421Z,12.61
2022-09-22T08:13:44.608Z,12.56
2022-09-22T08:14:48.757Z,12.51
2022-09-22T08:15:56.775Z,12.50
2022-09-22T08:17:01.249Z,12.57
2022-09-22T08:18:04.965Z,12.67
2022-09-22T08:19:12.586Z,12.80
2022-09-22T08:20:16.834Z,13.03
2022-09-22T08:21:21.153Z,13.14
2022-09-22T08:22:29.074Z,13.17
2022-09-22T08:23:33.691Z,13.18
2022-09-22T08:24:37.434Z,13.17
2022-09-22T08:25:41.716Z,13.16
2022-09-22T08:26:48.227Z,13.11
2022-09-22T08:27:52.716Z,13.02
2022-09-22T08:28:58.139Z,12.98
2022-09-22T08:30:01.370Z,12.93
2022-09-22T08:31:06.765Z,12.86
2022-09-22T08:32:10.308Z,12.83
2022-09-22T08:33:14.893Z,12.87
2022-09-22T08:34:19.240Z,12.87
2022-09-22T08:35:22.346Z,12.84
2022-09-22T08:36:28.493Z,12.88
2022-09-22T08:37:36.819Z,12.89
2022-09-22T08:38:43.228Z,12.92
2022-09-22T08:39:46.967Z,12.98
2022-09-22T08:41:04.113Z,13.02
2022-09-22T08:42:14.524Z,13.10
2022-09-22T08:43:18.403Z,13.16
2022-09-22T08:44:24.329Z,13.19
2022-09-22T08:45:32.690Z,13.20
2022-09-22T08:46:38.002Z,13.16
2022-09-22T08:48:06.683Z,13.08
2022-09-22T08:49:36.534Z,12.97
2022-09-22T08:51:05.404Z,12.93
2022-09-22T08:52:16.270Z,12.94
2022-09-22T08:53:23.654Z,12.97
2022-09-22T08:54:31.566Z,13.05
2022-09-22T08:55:35.646Z,13.18
2022-09-22T08:56:44.143Z,13.31
2022-09-22T08:58:05.396Z,13.38
2022-09-22T08:59:14.865Z,13.40
2022-09-22T09:00:20.831Z,13.47
2022-09-22T09:01:44.120Z,13.57
2022-09-22T09:02:53.289Z,13.63
2022-09-22T09:04:11.386Z,13.76
2022-09-22T09:05:45.105Z,13.84
2022-09-22T09:06:53.827Z,13.82
2022-09-22T09:08:02.766Z,13.76
2022-09-22T09:09:31.726Z,13.66
2022-09-22T09:10:45.815Z,13.56
2022-09-22T09:12:07.497Z,13.46
2022-09-22T09:13:43.547Z,13.35
2022-09-22T09:15:13.120Z,13.29
2022-09-22T09:16:32.984Z,13.28
2022-09-22T09:17:41.185Z,13.26
2022-09-22T09:18:47.534Z,13.24
2022-09-22T09:19:57.584Z,13.21
2022-09-22T09:21:03.999Z,13.17
2022-09-22T09:22:15.823Z,13.18
2022-09-22T09:23:22.363Z,13.16
2022-09-22T09:25:58.523Z,13.28
2022-09-22T09:27:09.233Z,13.35
2022-09-22T09:28:16.084Z,13.40
2022-09-22T09:29:22.906Z,13.44
2022-09-22T09:30:27.305Z,13.46
2022-09-22T09:31:34.335Z,13.52
2022-09-22T09:32:45.333Z,13.55
2022-09-22T09:33:55.925Z,13.62
2022-09-22T09:34:59.887Z,13.68
2022-09-22T09:36:17.672Z,13.76
2022-09-22T09:37:23.456Z,13.81
2022-09-22T09:38:29.079Z,13.86
2022-09-22T09:39:39.636Z,13.92
2022-09-22T09:40:44.950Z,13.99
2022-09-22T09:41:52.162Z,14.11
2022-09-22T09:43:03.349Z,14.19
2022-09-22T09:44:08.895Z,14.30
2022-09-22T09:45:14.421Z,14.47
2022-09-22T09:46:26.972Z,14.67
2022-09-22T09:47:47.854Z,14.95
2022-09-22T09:49:06.232Z,15.19
2022-09-22T09:50:11.400Z,15.35
2022-09-22T09:51:15.685Z,15.42
2022-09-22T09:52:19.219Z,15.40
2022-09-22T09:53:32.853Z,15.34
2022-09-22T09:54:38.590Z,15.23
2022-09-22T09:55:43.483Z,15.13
2022-09-22T09:57:04.477Z,15.13
2022-09-22T09:58:11.195Z,15.17
2022-09-22T09:59:33.051Z,15.22
2022-09-22T10:00:53.089Z,15.29
2022-09-22T10:01:58.176Z,15.36
2022-09-22T10:03:06.894Z,15.54
2022-09-22T10:04:30.154Z,15.81
2022-09-22T10:05:37.787Z,15.95
2022-09-22T10:06:42.738Z,16.00
2022-09-22T10:07:50.179Z,15.98
2022-09-22T10:08:55.258Z,15.90
2022-09-22T10:10:25.394Z,15.82
2022-09-22T10:11:31.541Z,15.71
2022-09-22T10:12:36.328Z,15.57
2022-09-22T10:13:57.120Z,15.49
2022-09-22T10:15:03.361Z,15.43
2022-09-22T10:16:21.404Z,15.43
2022-09-22T10:17:30.266Z,15.41
2022-09-22T10:18:36.816Z,15.35
2022-09-22T10:19:49.158Z,15.31
2022-09-22T10:21:03.076Z,15.26
2022-09-22T10:22:25.153Z,15.16
2022-09-22T10:23:29.150Z,15.07
2022-09-22T10:24:35.993Z,15.01
2022-09-22T10:25:43.189Z,15.03
2022-09-22T10:26:56.767Z,15.17
2022-09-22T10:28:02.185Z,15.27
2022-09-22T10:29:18.736Z,15.35
2022-09-22T10:30:24.840Z,15.37
2022-09-22T10:31:28.464Z,15.39
2022-09-22T10:32:32.621Z,15.45
2022-09-22T10:33:37.595Z,15.49
2022-09-22T10:35:57.156Z,15.59
2022-09-22T10:37:01.378Z,15.68
2022-09-22T10:38:10.264Z,15.78
2022-09-22T10:39:19.230Z,15.94
2022-09-22T10:40:22.792Z,16.11
2022-09-22T10:41:53.418Z,16.25
2022-09-22T10:43:01.481Z,16.36
2022-09-22T10:44:38.642Z,16.44
2022-09-22T10:45:53.566Z,16.57
2022-09-22T10:47:17.350Z,16.68
2022-09-22T10:48:27.234Z,16.71
2022-09-22T10:49:41.794Z,16.88
2022-09-22T10:50:54.053Z,17.02
2022-09-22T10:52:08.985Z,17.01
2022-09-22T10:53:29.026Z,16.91
2022-09-22T10:55:06.708Z,16.74
2022-09-22T10:56:14.983Z,16.61
2022-09-22T10:57:46.432Z,16.47
2022-09-22T10:59:02.093Z,16.26
2022-09-22T11:00:12.732Z,16.17
2022-09-22T11:01:32.179Z,16.30
2022-09-22T11:03:18.110Z,16.53
2022-09-22T11:04:41.446Z,16.75
2022-09-22T11:06:13.685Z,16.82
2022-09-22T11:08:01.615Z,17.00
2022-09-22T11:09:30.675Z,17.35
2022-09-22T11:10:56.356Z,17.61
2022-09-22T11:12:17.726Z,17.66
2022-09-22T11:13:37.787Z,17.39
2022-09-22T11:14:51.695Z,16.92
2022-09-22T11:16:15.119Z,16.37
2022-09-22T11:17:31.544Z,15.85
2022-09-22T11:18:55.338Z,15.37
2022-09-22T11:20:11.895Z,14.98
2022-09-22T11:21:27.143Z,14.68
2022-09-22T11:22:42.487Z,14.45
2022-09-22T11:23:57.343Z,14.25
2022-09-22T11:25:39.584Z,14.08
2022-09-22T11:26:51.456Z,13.93
2022-09-22T11:28:05.059Z,13.86
2022-09-22T11:29:27.039Z,13.81
2022-09-22T11:30:36.194Z,13.79
2022-09-22T11:31:47.167Z,13.80
2022-09-22T11:33:19.106Z,13.84
2022-09-22T11:34:54.339Z,13.79
2022-09-22T11:36:14.885Z,13.84
2022-09-22T11:37:35.932Z,13.91
2022-09-22T11:39:05.840Z,13.99
2022-09-22T11:40:34.317Z,14.06
2022-09-22T11:41:45.633Z,14.10
2022-09-22T11:42:59.428Z,14.11
2022-09-22T11:44:34.455Z,14.17
2022-09-22T11:46:01.826Z,14.19
2022-09-22T11:47:43.591Z,14.23
2022-09-22T11:50:49.118Z,14.44
2022-09-22T11:52:15.100Z,14.74
2022-09-22T11:53:44.453Z,15.24
2022-09-22T11:55:02.652Z,15.76
2022-09-22T11:56:37.088Z,16.47
2022-09-22T11:57:42.964Z,17.03
2022-09-22T11:58:46.963Z,17.53
2022-09-22T11:59:58.656Z,18.01
2022-09-22T12:01:10.881Z,18.44
2022-09-22T12:02:19.394Z,18.78
2022-09-22T12:03:25.732Z,19.13
2022-09-22T12:04:37.199Z,19.45
2022-09-22T12:05:44.076Z,19.72
2022-09-22T12:06:50.625Z,20.03
2022-09-22T12:07:59.493Z,20.28
2022-09-22T12:09:06.224Z,20.42
2022-09-22T12:10:18.136Z,20.47
2022-09-22T12:11:24.144Z,20.33
2022-09-22T12:12:29.811Z,20.16
2022-09-22T12:13:35.205Z,20.03
2022-09-22T12:14:40.007Z,19.88
2022-09-22T12:15:53.266Z,19.87
2022-09-22T12:17:00.893Z,20.10
2022-09-22T12:18:26.604Z,20.30
2022-09-22T12:19:39.963Z,20.51
2022-09-22T12:20:55.344Z,20.69
2022-09-22T12:22:05.395Z,20.59
2022-09-22T12:23:39.618Z,20.22
2022-09-22T12:24:46.112Z,19.94
2022-09-22T12:25:54.212Z,19.86
2022-09-22T12:26:58.609Z,19.69
2022-09-22T12:28:01.973Z,19.42
2022-09-22T12:29:10.746Z,19.17
2022-09-22T12:30:23.141Z,18.85
2022-09-22T12:31:36.479Z,18.55
2022-09-22T12:32:42.412Z,18.28
2022-09-22T12:33:49.078Z,18.05
2022-09-22T12:34:54.235Z,17.92
2022-09-22T12:35:57.777Z,17.80
2022-09-22T12:37:11.472Z,17.70
2022-09-22T12:38:14.629Z,17.52
2022-09-22T12:39:20.721Z,17.35
2022-09-22T12:40:30.116Z,17.33
2022-09-22T12:41:34.516Z,17.44
2022-09-22T12:42:39.575Z,17.70
2022-09-22T12:43:44.645Z,18.06
2022-09-22T12:44:52.856Z,18.52
2022-09-22T12:45:58.228Z,18.86
2022-09-22T12:47:06.933Z,19.20
2022-09-22T12:48:14.470Z,19.37
2022-09-22T12:49:21.139Z,19.70
2022-09-22T12:50:38.981Z,20.27
2022-09-22T12:51:43.375Z,20.62
2022-09-22T12:53:07.714Z,20.71
2022-09-22T12:54:48.820Z,20.51
2022-09-22T12:55:53.608Z,20.14
2022-09-22T12:56:59.942Z,19.93
2022-09-22T12:58:04.310Z,19.84
2022-09-22T12:59:47.200Z,19.77
2022-09-22T13:00:53.249Z,19.53
2022-09-22T13:02:24.620Z,19.17
2022-09-22T13:03:42.358Z,18.85
2022-09-22T13:05:19.818Z,18.74
2022-09-22T13:07:06.396Z,18.76
2022-09-22T13:08:17.927Z,18.80
2022-09-22T13:09:25.674Z,18.75
2022-09-22T13:11:01.567Z,18.57
2022-09-22T13:12:28.520Z,18.31
2022-09-22T13:13:44.907Z,18.36
2022-09-22T13:15:16.266Z,18.65
2022-09-22T13:16:37.746Z,19.27
2022-09-22T13:17:44.112Z,19.82
2022-09-22T13:19:00.113Z,20.33
2022-09-22T13:20:12.616Z,20.52
2022-09-22T13:21:21.414Z,20.43
2022-09-22T13:22:26.092Z,20.21
2022-09-22T13:23:32.496Z,19.94
2022-09-22T13:24:36.301Z,19.68
2022-09-22T13:26:10.170Z,19.65
2022-09-22T13:27:22.487Z,19.80
2022-09-22T13:28:27.197Z,19.84
2022-09-22T13:29:30.435Z,19.75
2022-09-22T13:30:35.190Z,19.61
2022-09-22T13:31:51.296Z,19.66
2022-09-22T13:32:55.735Z,19.78
2022-09-22T13:34:00.541Z,20.00
2022-09-22T13:35:25.411Z,20.25
2022-09-22T13:36:32.853Z,20.60
2022-09-22T13:37:36.298Z,21.00
2022-09-22T13:38:43.459Z,21.39
2022-09-22T13:39:49.755Z,21.71
2022-09-22T13:41:02.441Z,21.86
2022-09-22T13:42:08.833Z,21.90
2022-09-22T13:43:12.694Z,21.83
2022-09-22T13:44:22.514Z,21.67
2022-09-22T13:45:27.648Z,21.42
2022-09-22T13:46:37.809Z,21.03
2022-09-22T13:47:44.496Z,20.59
2022-09-22T13:48:55.520Z,20.12
2022-09-22T13:50:04.580Z,19.59
2022-09-22T13:51:09.953Z,19.13
2022-09-22T13:52:16.485Z,18.68
2022-09-22T13:53:22.993Z,18.28
2022-09-22T13:54:29.542Z,17.92
2022-09-22T13:55:35.765Z,17.63
2022-09-22T13:56:42.702Z,17.37
2022-09-22T13:57:52.794Z,17.08
2022-09-22T13:59:03.212Z,16.82
2022-09-22T14:00:09.266Z,16.55
2022-09-22T14:01:18.117Z,16.33
2022-09-22T14:02:31.341Z,16.13
2022-09-22T14:03:47.525Z,15.88
2022-09-22T14:04:55.575Z,15.59
2022-09-22T14:06:00.398Z,15.37
2022-09-22T14:07:11.186Z,15.15
2022-09-22T14:08:20.361Z,14.91
2022-09-22T14:09:27.894Z,14.74
2022-09-22T14:10:39.495Z,14.58
2022-09-22T14:11:44.773Z,14.41
2022-09-22T14:12:49.003Z,14.26
2022-09-22T14:14:00.492Z,14.12
2022-09-22T14:15:40.640Z,13.96
2022-09-22T14:16:49.034Z,13.78
2022-09-22T14:17:56.118Z,13.70
2022-09-22T14:19:04.753Z,13.66
2022-09-22T14:20:11.578Z,13.61
2022-09-22T14:21:14.903Z,13.58
2022-09-22T14:22:21.737Z,13.55
2022-09-22T14:23:28.566Z,13.58
2022-09-22T14:24:35.400Z,13.61
2022-09-22T14:25:40.422Z,13.63
2022-09-22T14:26:47.868Z,13.67
2022-09-22T14:27:55.652Z,13.68
2022-09-22T14:29:06.722Z,13.69
2022-09-22T14:30:20.041Z,13.71
2022-09-22T14:31:27.237Z,13.72
2022-09-22T14:32:36.269Z,13.76
2022-09-22T14:35:02.424Z,13.82
2022-09-22T14:36:30.687Z,13.99
2022-09-22T14:38:23.677Z,14.08
2022-09-22T14:39:34.520Z,14.15
2022-09-22T14:40:52.921Z,14.22
2022-09-22T14:42:31.124Z,14.28
2022-09-22T14:43:39.575Z,14.31
2022-09-22T14:44:48.690Z,14.36
2022-09-22T14:46:02.338Z,14.37
2022-09-22T14:47:27.755Z,14.40
2022-09-22T14:48:33.022Z,14.45
2022-09-22T14:49:44.648Z,14.48
2022-09-22T14:50:56.399Z,14.54
2022-09-22T14:52:06.592Z,14.57
2022-09-22T14:53:25.037Z,14.64
2022-09-22T14:54:36.042Z,14.68
2022-09-22T14:55:45.716Z,14.72
2022-09-22T15:00:39.865Z,14.55
2022-09-22T15:03:09.901Z,14.39
2022-09-22T15:04:18.344Z,14.28
2022-09-22T15:05:32.656Z,14.22
2022-09-22T15:07:05.164Z,14.08
2022-09-22T15:08:32.259Z,14.00
2022-09-22T15:09:45.531Z,13.94
2022-09-22T15:11:52.524Z,13.79
2022-09-22T15:13:43.586Z,13.72
2022-09-22T15:17:58.493Z,13.47
2022-09-22T15:20:12.531Z,13.28
2022-09-22T15:21:30.646Z,13.22
2022-09-22T15:32:48.648Z,12.73
2022-09-22T15:33:55.029Z,12.69
2022-09-22T15:35:01.619Z,12.64
2022-09-22T15:36:13.327Z,12.56
2022-09-22T15:37:38.686Z,12.50
2022-09-22T15:40:43.846Z,12.35
2022-09-22T15:42:29.425Z,12.27
2022-09-22T15:44:18.502Z,12.25
2022-09-22T15:46:17.629Z,12.25
2022-09-22T15:50:42.290Z,12.20
2022-09-22T15:52:47.439Z,12.17
2022-09-22T15:54:00.673Z,12.13
2022-09-22T15:55:22.718Z,12.09
2022-09-22T15:57:15.477Z,12.08
2022-09-22T16:00:20.261Z,11.98
2022-09-22T16:02:35.937Z,11.90
2022-09-22T16:17:38.335Z,11.58
2022-09-22T16:20:53.922Z,11.58
2022-09-22T16:22:09.545Z,11.60
2022-09-22T16:23:15.740Z,11.61
2022-09-22T16:24:20.500Z,11.65
2022-09-22T16:25:46.129Z,11.64
2022-09-22T16:27:29.783Z,11.64
2022-09-22T16:28:34.281Z,11.63
2022-09-22T16:29:57.409Z,11.62
2022-09-22T16:31:04.449Z,11.61
2022-09-22T16:33:29.204Z,11.58
2022-09-22T16:34:50.755Z,11.58
2022-09-22T16:36:44.950Z,11.57
2022-09-22T16:38:42.535Z,11.48
2022-09-22T16:39:52.065Z,11.44
2022-09-22T16:42:57.572Z,11.33
2022-09-22T16:48:58.946Z,11.11
2022-09-22T16:50:12.901Z,11.07
2022-09-22T16:50:29.710Z,11.28
2022-09-22T16:51:48.274Z,11.06
2022-09-22T16:53:05.628Z,11.01
2022-09-22T16:54:20.704Z,10.99
2022-09-22T16:55:25.913Z,11.00
2022-09-22T16:56:43.695Z,10.99
2022-09-22T16:58:13.692Z,10.98
2022-09-22T16:59:34.363Z,10.98
2022-09-22T17:01:19.567Z,10.98
2022-09-22T17:04:48.537Z,10.96
2022-09-22T17:07:03.350Z,10.90
2022-09-22T17:08:16.700Z,10.88
2022-09-22T17:09:48.577Z,10.86
2022-09-22T17:13:18.774Z,10.79
2022-09-22T17:15:20.947Z,10.78
2022-09-22T17:25:13.951Z,10.73
2022-09-22T17:27:44.198Z,10.64
2022-09-22T17:37:10.345Z,10.41
2022-09-22T17:42:49.863Z,10.32
2022-09-22T17:44:53.878Z,10.24
2022-09-22T17:50:44.785Z,10.08
2022-09-22T17:58:48.306Z,9.77
2022-09-22T18:00:24.551Z,9.66
2022-09-22T18:03:45.080Z,9.49
2022-09-22T19:09:52.761Z,9.11
2022-09-22T19:21:26.370Z,9.13
2022-09-22T21:36:28.138Z,7.10
2022-09-22T23:29:45.231Z,7.72
